Latest METARs, TAFs and NOTAMs for SKCL


---------------------------------------------------------------------------
	(OBSERVATIONS)
SKCL 040300Z 36012KT 9999 FEW040 24/19 A2999=
SKCL 040200Z 34008KT 9999 FEW040 SCT120 25/19 A2997=
SKCL 040100Z 32008KT 9999 FEW040 25/19 A2992=
---------------------------------------------------------------------------
	(TERMINAL AREA FORECAST)
SKCL 032300Z 040024 03006KT 9999 FEW023 SCT100
    TEMPO 0411/0417 10007KT
    TEMPO 0417/0423 34008KT SCT020TCU
    TX33/0418Z TN19/0411Z=
---------------------------------------------------------------------------
	(NOTAMS)


SKCL A1645/15 ACFT STAND NR 15,16 AUTH ENGINES START. 17 JUN
    21:20 2015 UNTIL 30 SEP 23:59 2015. CREATED: 01 JUL 04:55
    2015

SKCL A1685/15 RWY 01/19 CLSD. DLY BTN 0600-1015, 01 NOV 06:00
    2015 UNTIL 28 FEB 10:15 2017. CREATED: 24 JUN 01:24 2015

SKCL A1974/15 TWY A,B,C,C1,C2,D,E,F,G WIP, EXER CTN. H24, 28
    JUL 15:00 2015 UNTIL 31 OCT 23:59 2015. CREATED: 28 JUL 15:17
    2015

SKCL A1975/15 APN, APN CARGA AND DESCONGESTION APN WIP, EXER
    CTN. H24, 28 JUL 15:20 2015 UNTIL 31 OCT 23:59 2015. CREATED:
    28 JUL 15:25 2015

SKCL A1976/15 RWY 01/19 TURNING BAY LTD, ACFT PROHIBITED PARALLEL
    OR ONE SURPASSES THE OTHER ACFT, EXER CTN. H24, 28 JUL 15:25
    2015 UNTIL 31 OCT 23:59 2015. CREATED: 28 JUL 15:32 2015

SKCL A2004/15 MOV AREA WO VERTICAL SIGNALLING, EXER CTN. H24,
    31 JUL 13:35 2015 UNTIL 03 NOV 23:59 2015. CREATED: 31 JUL
    13:38 2015

SKCL A2080/15 INTL APN LTD, RESTRICTED OPS ACFT GEN AVIATION,
    GEN AVIATION WILL BE RELOCATED IN DESCONGESTION APN, CARGO
    APN AND GEN AVIATION. -CREW MUST INFORM TO CECOA WHEN OVERNIGHT
    WILL BE PRETEND AND DEPARTURE DATE TEL. (57) 3155779760 -
    (57-2) 2800111. 10 AUG 18:00 2015 UNTIL 31 OCT 23:59 2015.
    CREATED: 10 AUG 18:29 2015

SKCL A2086/15 STRIP RWY 01/19 AND STRIP TWY A,B,C,D,E,F WIP,
    EXER CTN. 11 AUG 14:00 2015 UNTIL 31 OCT 23:59 2015. CREATED:
    11 AUG 14:46 2015

SKCL A2109/15 APN NTL AND INTL WIP, EXER CTN. 14 AUG 16:30 2015
    UNTIL 17 NOV 23:59 2015 ESTIMATED. CREATED: 14 AUG 16:35
    2015

SKCL A2183/15 SEQUENCED FLG LGT RWY 01 U/S. 24 AUG 15:17 2015
    UNTIL 24 NOV 23:59 2015 ESTIMATED. CREATED: 18 AUG 14:53
    2015

SKCL A9012/15 INTL APN LTD, RESTRICTED OPS ACFT GEN AVIATION
    DAYS TUE, THU Y SAT, GEN AVIATION WILL BE RELOCATED IN DESCONGESTION
    APN AND CARGO APN NOTE: CREW MUST INFORM TO CECOA WHEN OVERNIGHT
    WILL BE PRETEND AND DEPARTURE DATE TEL. (57) 3155779760 -
    (57-2) 2800111. 30 JUL 20:50 2015 UNTIL 31 OCT 23:59 2015.
    CREATED: 30 JUL 21:01 2015

SKCL V0068/15 [DOD PROCEDURAL NOTAM] INSTRUMENT APPROACH PROCEDURE
    NOT AUTHORIZED: ILS RWY 01 AMDT 1, VOR RWY 19 ORIG, ANKIN
    5A, 5B, DEPARTURE, BUN 6A DEPARTURE, BUN 6C DEPARTURE NOT
    AUTHORIZED. 25 JUN 22:10 2015 UNTIL 15 OCT 23:59 2015. CREATED:
    25 JUN 22:07 2015

---------------------------------------------------------------------------